Aviation Digital Data Service (ADDS)

Output produced by METARs form (1051 UTC 19 January 2019)
found at http://www.aviationweather.gov/metar/data/
 
YPAD 191030Z 16013KT 9999 FEW030 BKN350 19/10 Q1021 FM1030 MOD TURB BLW 5000FT
TAF YPAD 190518Z 1906/2012 15012KT CAVOK 
     FM192000 VRB05KT CAVOK 
     FM200000 15012KT CAVOK 
     FM200300 24012KT CAVOK 
     FM201000 15010KT CAVOK
       
YABA 191000Z AUTO 12011KT 9999 // NCD 24/16 Q1016
YMAY 191000Z AUTO 31008KT 9999 // NCD 30/01 Q1014
YBAS 191030Z AUTO 14011KT 9999 // NCD 38/07 Q1010 RF00.0/000.0
TAF YBAS 190501Z 1906/2006 10012KT CAVOK 
     FM200100 09018G28KT CAVOK
       
YAMB 191030Z AUTO 08008KT 9999 // NCD 26/20 Q1014
TAF AMD YAMB 190722Z 1907/1924 03012KT CAVOK 
     FM191300 VRB03KT 9999 FEW030 
     PROB30 1917/1921 2000 BR NSC
       
YARG 191000Z AUTO 03006KT 9999 // NCD 34/20 Q1006
YMAV 191030Z AUTO 17011KT 9999 // NCD 18/12 Q1022 RF00.0/000.0
TAF AMD YMAV 190522Z 1906/2006 16015KT CAVOK 
     FM191000 18010KT CAVOK 
     FM191600 30006KT 9999 FEW015 SCT020 
     BECMG 1922/1924 22006KT 9999 FEW020 
     FM200200 18014KT CAVOK 
     TEMPO 1918/1922 9999 BKN015
       
YAYE 191019Z AUTO 36017KT 360V130 9999 // BKN115 32/15 Q1012
YBNA 191000Z AUTO 02010KT 9999 // NCD 25/22 Q1014
YBWX 191000Z AUTO 31013KT //// // ////// 32/21 Q1006
YBDV 191000Z AUTO 11006KT //// // ////// 43/08 Q1007
YBBN 191030Z 01013KT CAVOK 25/21 Q1015 NOSIG
TAF YBBN 190505Z 1906/2012 04014KT 9999 FEW040 
     FM190900 02010KT 9999 FEW030 
     FM191400 21005KT 9999 FEW025 
     FM192200 12008KT 9999 FEW030 
     FM200100 08012KT 9999 FEW040
       
YBHI 191000Z AUTO 16014KT 9999 // NCD 31/02 Q1017
YBRM 191030Z AUTO 27010KT 9999 // SCT096 31/27 Q1006 RF00.0/000.0
TAF AMD YBRM 190507Z 1905/2006 27013KT CAVOK 
     FM191500 24005KT 9999 SCT014 
     PROB30 INTER 1905/1916 VRB25G45KT 2000 TSRA BKN015 FEW060CB
       
YBUD 191000Z AUTO 07005KT 9999 // NCD 25/19 Q1015
YBCS 191030Z AUTO 15006KT 9999 -SHRA SCT045 SCT050 OVC059 26/22 Q1011 RMK RF00.0/003.4 NOSIG
TAF YBCS 190509Z 1906/2006 14012KT 9999 FEW030 SCT045 
     FM190800 16008KT 9999 -SHRA FEW025 BKN035 
     FM200100 14012KT 9999 FEW030 SCT045
       
YSCB 191030Z AUTO 07004KT 050V110 9999 // NCD 18/14 Q1021 RF00.0/000.0
TAF AMD YSCB 190510Z 1905/2006 07017G27KT 9999 SCT025 
     BECMG 1908/1910 11008KT 9999 BKN015 
     BECMG 1921/1923 02005KT 9999 SCT050
       
YCAR 191000Z AUTO 23013KT 9999 // NCD 31/20 Q1006
YCAS 191000Z AUTO 13006KT //// // ////// 27/19 Q1014
YCDU 191000Z AUTO 17009KT 9999 // BKN120 20/17 Q1020
YBCV 191000Z AUTO 11007KT 9999 // NCD 37/M01 Q1012
YCCY 191000Z AUTO 13012KT 9999 // NCD 39/09 Q1006
YCBA 191000Z AUTO 17014KT 9999 // NCD 35/14 Q1014
YCBP 191000Z AUTO 17021KT 9999 // NCD 34/09 Q1014
YBCG 191030Z AUTO 36013KT 9999 // NCD 25/22 Q1015 RF00.0/000.0
TAF YBCG 190505Z 1906/2006 01017KT 9999 FEW040 
     FM190800 01014KT 9999 FEW035 
     FM191000 36010KT 9999 SCT030 
     FM191300 31006KT 9999 SCT025 
     FM191600 21005KT 9999 SCT025 
     FM200000 09012KT 9999 FEW040
       
YCOM 191000Z AUTO 04010KT 9999 // NCD 15/13 Q1022
YCBB 191000Z AUTO 16010KT 9999 // NCD 33/09 Q1017
YCNM 191000Z AUTO 24004KT //// // ////// 34/08 Q1012
YCIN 191030Z AUTO 35009KT 9999 // NCD 26/23 Q1006 RESHRA RF00.0/002.2
TAF YCIN 190645Z 1908/1920 32010KT CAVOK 
     FM191700 22006KT 9999 SCT015 
     PROB30 INTER 1908/1914 VRB25G40KT 2000 TSRA BKN030 FEW060CB
       
YPDN 191030Z 00000KT 9999 FEW010 SCT230 BKN330 27/27 Q1007 NOSIG RMK USE TAF FOR ARRIVALS AFTER 1230Z
TAF AMD YPDN 190501Z 1906/2012 30007KT 9999 SCT020 
     FM191800 13005KT 9999 FEW015 
     FM200300 04008KT 9999 SCT020 
     PROB30 
     TEMPO 1906/1923 VRB20G35KT 1000 TSRA BKN010 SCT020CB 
     PROB30 
     TEMPO 2003/2012 VRB20G35KT 1000 TSRA BKN010 SCT020CB
       
YDBY 191030Z AUTO 03015KT 9999 -RA NCD 25/23 Q1007 RERA
YSDU 191030Z AUTO 17006KT 9999 // NCD 34/12 Q1014 RF00.0/000.0
TAF YSDU 190532Z 1906/1924 17010KT CAVOK 
     FM191200 09014KT 9999 FEW015
       
YEML 191000Z AUTO 06009KT 9999 // NCD 30/16 Q1013
YESP 191000Z AUTO 11016KT 9999 // NCD 28/13 Q1017
YFRT 191030Z AUTO 10019KT 9999 // NCD 24/15 Q1019 RF00.0/000.0
TAF YFRT 190649Z 1908/1920 10013KT CAVOK 
     PROB30 INTER 1912/1920 VRB20G40KT 5000 TSRA FEW120CB
       
YGEL 191030Z AUTO 17017KT 9999 // NCD 28/16 Q1010 RF00.0/000.0
TAF YGEL 190410Z 1906/1924 19018KT CAVOK 
     FM191300 16012KT CAVOK
       
YGLA 191030Z AUTO 09009KT 9999 // NCD 26/20 Q1014 RF00.0/000.0
TAF YGLA 190523Z 1906/1918 07014KT 9999 FEW035 
     FM191000 11010KT 9999 SCT025
       
YPGV 191030Z AUTO 15005KT 9999 // NCD 28/26 Q1007 RF00.0/001.6
TAF YPGV 190730Z 1908/1920 10008KT 9999 SCT025 
     PROB30 
     TEMPO 1908/1920 VRB20G35KT 1000 TSRA BKN010 SCT020CB
       
YGFN 191000Z AUTO 17013KT 9999 // NCD 28/18 Q1016
YGTH 191000Z AUTO 20007KT 9999 // NCD 31/04 Q1015
YGTE 191000Z AUTO 11005KT 9999 // NCD 31/24 Q1008
YBHM 191030Z AUTO 10019KT 9999 // SCT029 26/21 Q1013 RF00.0/000.0
TAF YBHM 190520Z 1906/1918 11017KT 9999 SCT030 
     FM191400 11017KT 9999 SCT025
       
YMHB 191030Z 29013KT 9999 FEW040 18/06 Q1015
TAF YMHB 190453Z 1906/2006 29015G25KT 9999 FEW050 
     FM190900 29012KT 9999 SCT025 
     FM191200 33012KT 9999 SCT020 BKN025 
     FM200000 19010KT 9999 FEW030 
     FM200300 14015KT 9999 FEW040
       
YHID 191030Z AUTO 12011KT 9999 +SHRA SCT020 BKN033 BKN038 27/24 Q1008
TAF AMD YHID 191017Z 1910/2006 VRB05KT 9999 -SHRA SCT020 SCT035 
     FM200000 09008KT 9999 SCT025 BKN060 INTER 1910/1924 4000 SHRA BKN018
       
YHUG 191000Z AUTO 12013KT 9999 // NCD 35/10 Q1009
YPKG 191030Z AUTO 11010KT 9999 // NCD ///// Q1016 RF00.0/000.0
TAF YPKG 190503Z 1906/2006 07010KT CAVOK
       
YKRY 191000Z AUTO 05004KT 020V120 9999 // NCD 26/15 Q1016
YPKU 191030Z AUTO 34005KT 9999 // NCD 32/24 Q1006 RF00.0/000.0
TAF YPKU 190644Z 1908/1920 VRB05KT CAVOK 
     PROB30 INTER 1908/1916 VRB25G45KT 2000 TSRA BKN015 FEW060CB
       
YMLT 191030Z AUTO 33009KT 9999 // NCD 17/07 Q1016 RF00.0/000.0
TAF AMD YMLT 190904Z 1909/2006 30015KT CAVOK 
     FM191100 33010KT 9999 FEW010 
     FM192300 31014KT CAVOK 
     FM200400 29014KT CAVOK
       
YPLM 191030Z AUTO 31011KT 9999 // NCD 36/13 Q1006 RF00.0/000.0
TAF YPLM 190504Z 1906/2006 03014KT CAVOK 
     FM190800 30014KT CAVOK 
     FM191300 26010KT CAVOK 
     FM200300 30010KT CAVOK
       
YLEC 191000Z AUTO 13010KT //// // ////// 35/08 Q1015
YLIS 191000Z AUTO 36003KT 9999 // NCD 25/20 Q1013
YLRE 191000Z AUTO 07010KT 9999 // NCD 35/10 Q1010
YBMK 191000Z AUTO 11013KT 9999 // SCT026 27/21 Q1013
YMEK 191000Z AUTO 12009KT 9999 // NCD 39/04 Q1011
YMEN 191000Z AUTO 18014KT 9999 // NCD 18/11 Q1021
YMML 191030Z 17011KT CAVOK 17/11 Q1022 FM1200 19007KT 9999 FEW015 BKN020
TAF AMD YMML 190518Z 1906/2012 18014KT CAVOK 
     BECMG 1910/1912 25007KT 9999 FEW015 BKN020 
     BECMG 2000/2002 18013KT CAVOK 
     TEMPO 1918/1923 9999 BKN015
       
YMER 191000Z AUTO 11001KT 9999 // OVC029 19/15 Q1020
YMIA 191000Z AUTO 17005KT 9999 // NCD 29/M03 Q1017
YMOR 191014Z AUTO 06016G29KT 360V060 9999 // BKN125 35/12 Q1013
YMTG 191000Z AUTO 19009KT 9999 // NCD 16/11 Q1023
YBMA 191030Z AUTO 12010KT 9999 // NCD 38/08 Q1008 RF00.0/000.0
TAF YBMA 190454Z 1906/1918 18010KT CAVOK 
     FM191000 VRB03KT CAVOK
       
YMDG 191000Z AUTO 06011KT 9999 // NCD 28/19 Q1018
YNBR 191000Z AUTO 00000KT 9999 // NCD 34/07 Q1012
YNAR 191000Z AUTO 22005KT //// // ////// 30/02 Q1016
YNWN 191000Z AUTO 13007KT 100V160 9999 // NCD 40/09 Q1009
YNTN 191000Z AUTO 33010KT 9999 // NCD 30/27 Q1007
YSNW 191034Z AUTO 15005KT 9999 // SCT005 BKN016 OVC023 18/18 Q1021
YBOK 191000Z AUTO 06011KT 9999 // NCD 31/10 Q1015
YOLD 191012Z AUTO 17015G25KT 9999 // NCD 34/08 Q1014
TAF YOLD 190047Z 1902/1914 16016KT CAVOK
       
YPBO 191034Z AUTO 16013KT 160V240 9999 // NCD 41/07 Q1007
YPEA 191030Z AUTO 21014KT 9999 // NCD 35/10 Q1011
TAF YPEA 190412Z 1906/1924 05008KT CAVOK 
     FM190900 22014KT CAVOK 
     FM191300 17008KT CAVOK 
     FM192100 06009KT CAVOK
       
YPPH 191030Z 21016KT CAVOK 36/07 Q1011 NOSIG
TAF YPPH 190534Z 1906/2012 03008KT CAVOK 
     FM190800 22014KT CAVOK 
     FM191300 17008KT CAVOK 
     FM191900 07010KT CAVOK 
     FM200000 35009KT CAVOK 
     FM200600 23014KT CAVOK
       
YPJT 191030Z AUTO 20013KT 9999 // NCD 34/12 Q1012 RF00.0/000.0
TAF YPJT 190412Z 1906/1924 23014KT CAVOK 
     FM191300 18010KT CAVOK 
     FM192200 06008KT CAVOK
       
YPPD 191030Z AUTO 29009KT 9999 // NCD 33/25 Q1007
TAF AMD YPPD 191045Z 1911/2012 29010KT CAVOK 
     FM192300 18008KT CAVOK 
     FM200600 30014KT CAVOK 
     PROB30 INTER 1911/1915 VRB20G40KT 2000 TSRA BKN020 FEW080CB 
     PROB30 INTER 2006/2009 VRB20G40KT 2000 TSRA BKN020 FEW080CB
       
YPMQ 190653Z AUTO 20009KT 9999 // OVC017 26/23 Q1015
YBPN 191000Z AUTO 10007KT 9999 // NCD 26/21 Q1013
YSRI 191040Z AUTO 23005KT 9999 // SCT012 SCT020 BKN026 21/20 Q1021
TAF YSRI 190529Z 1906/2006 15010KT 9999 -DZ SCT008 BKN015 
     BECMG 1922/1924 13005KT 9999 SCT015 BKN025
       
YRMD 191000Z AUTO 11012KT 9999 // NCD 37/12 Q1007
YBRK 191030Z AUTO 08005KT 9999 // SCT023 25/20 Q1014 RF00.0/000.0
TAF YBRK 190526Z 1906/2006 02012KT 9999 FEW040 
     FM190900 08008KT 9999 FEW030 
     FM191200 16005KT 9999 FEW025 
     FM192200 12007KT 9999 SCT030 
     FM200300 08012KT 9999 FEW040
       
YSSY 191030Z 16009KT 9999 FEW017 BKN022 BKN030 22/18 Q1021 NOSIG
TAF AMD YSSY 190512Z 1906/2012 17015KT 9999 FEW010 BKN018 
     FM190900 20008KT 9999 -DZ SCT010 BKN018 
     FM192200 18008KT 9999 BKN020 
     FM200000 14012KT 9999 BKN025 
     FM200900 10008KT 9999 -DZ BKN018
       
YSTW 191030Z AUTO 10011KT 9999 // NCD 32/13 Q1017 RF00.0/000.0
TAF YSTW 190532Z 1906/1924 18010KT CAVOK 
     FM191100 11013KT 9999 NSC 
     FM191600 11005KT 9999 NSC 
     PROB30 INTER 1908/1910 VRB15G25KT 6000 TSRA FEW100CB
       
YTRE 191000Z AUTO 23009KT 9999 // SCT027 OVC033 25/22 Q1018
TAF AMD YTRE 190852Z 1908/1920 20010KT 9999 -DZ BKN015 
     FM191400 20005KT 9999 -DZ BKN010 
     TEMPO 1909/1920 5000 DZ BKN008 
     TEMPO 1908/1910 VRB20G35KT 3000 TSRA BKN010 SCT100CB 
     TEMPO 1910/1911 VRB20G35KT 3000 TSRA BKN010 SCT100CB
       
YTEF 191000Z AUTO 08009KT 9999 // NCD 40/13 Q1007
YTNK 191000Z AUTO 02004KT 9999 // NCD 38/14 Q1007
TAF YTNK 190730Z 1908/1920 05010KT CAVOK 
     FM191600 35008KT CAVOK
       
YPTN 191032Z AUTO 11019G29KT 9999 // SCT053 BKN066 30/22 Q1008
TAF YPTN 190501Z 1906/2006 06008KT 9999 SCT040 
     FM191900 05004KT 9999 BKN005 
     FM200000 10008KT 9999 SCT040 
     TEMPO 1906/1911 VRB20G35KT 1000 TSRA BKN010 SCT040CB
       
YBTL 191030Z AUTO 09013KT 9999 // SCT074 27/21 Q1012
TAF AMD YBTL 190833Z 1908/2006 07017KT 9999 FEW035 
     FM191000 12010KT 9999 SCT022 SCT035 
     FM200100 07017KT 9999 FEW035
       
YSWG 191000Z AUTO 27005KT 9999 // NCD 30/M01 Q1015
YWGT 191000Z AUTO 27010KT 9999 // NCD 28/09 Q1014
TAF YWGT 190057Z 1902/1914 25013KT CAVOK 
     BECMG 1909/1911 19007KT CAVOK
       
YBWP 191000Z AUTO 10006KT 9999 -SHRA SCT057 BKN110 26/24 Q1009 RESHRA
YWHA 191006Z AUTO 19019G29KT 9999 // NCD 23/14 Q1019
YWLM 191030Z AUTO 20011KT 3400 // OVC004 21/21 Q1019
TAF AMD YWLM 191032Z 1910/2012 17008KT 5000 -DZ SCT003 BKN010 
     BECMG 1922/1924 17008KT 9999 -DZ BKN015 
     TEMPO 1910/2000 3000 DZ BKN003 
     TEMPO 2000/2012 5000 DZ BKN008
       
YPWR 191030Z AUTO 16018KT 9999 // NCD 30/07 Q1017 RF00.0/000.0
TAF YPWR 190455Z 1906/1924 16018KT CAVOK 
     FM191800 15013KT CAVOK